createdAt,value
2023-01-12T00:00:07.129Z,18.38
2023-01-12T00:02:36.942Z,17.77
2023-01-12T00:05:06.450Z,21.80
2023-01-12T00:07:37.607Z,18.20
2023-01-12T00:10:07.283Z,17.08
2023-01-12T00:12:36.371Z,18.13
2023-01-12T00:15:05.794Z,17.63
2023-01-12T00:17:34.864Z,16.83
2023-01-12T00:20:05.159Z,16.67
2023-01-12T00:22:34.255Z,16.88
2023-01-12T00:25:03.325Z,18.33
2023-01-12T00:27:32.478Z,17.92
2023-01-12T00:30:01.571Z,17.40
2023-01-12T00:32:30.789Z,16.60
2023-01-12T00:35:00.015Z,18.50
2023-01-12T00:37:29.114Z,16.73
2023-01-12T00:40:02.624Z,15.70
2023-01-12T00:42:50.474Z,14.70
2023-01-12T00:45:22.845Z,15.85
2023-01-12T00:47:52.520Z,14.20
2023-01-12T00:50:21.734Z,14.35
2023-01-12T00:52:50.914Z,14.25
2023-01-12T00:55:20.147Z,14.32
2023-01-12T00:57:49.392Z,12.27
2023-01-12T01:00:22.235Z,11.05
2023-01-12T01:02:51.528Z,13.10
2023-01-12T01:05:20.775Z,13.52
2023-01-12T01:07:49.846Z,13.88
2023-01-12T01:10:19.386Z,11.27
2023-01-12T01:12:48.574Z,12.40
2023-01-12T01:15:17.747Z,11.57
2023-01-12T01:17:46.857Z,11.27
2023-01-12T01:20:16.107Z,10.65
2023-01-12T01:22:45.246Z,10.32
2023-01-12T01:25:14.559Z,12.82
2023-01-12T01:27:43.831Z,11.68
2023-01-12T01:30:13.467Z,11.35
2023-01-12T01:32:42.624Z,11.88
2023-01-12T01:35:11.998Z,11.20
2023-01-12T01:37:41.125Z,11.23
2023-01-12T01:40:11.453Z,10.98
2023-01-12T01:42:42.541Z,11.07
2023-01-12T01:45:17.924Z,10.30
2023-01-12T01:47:53.891Z,10.05
2023-01-12T01:50:26.457Z,11.85
2023-01-12T01:53:04.826Z,12.32
2023-01-12T01:56:03.898Z,11.75
2023-01-12T01:58:49.146Z,14.85
2023-01-12T02:01:19.112Z,13.20
2023-01-12T02:03:49.463Z,11.10
2023-01-12T02:06:19.264Z,11.77
2023-01-12T02:09:04.852Z,11.68
2023-01-12T02:11:56.936Z,12.60
2023-01-12T02:14:44.599Z,12.15
2023-01-12T02:17:50.911Z,11.27
2023-01-12T02:20:58.880Z,11.88
2023-01-12T02:24:25.308Z,11.05
2023-01-12T02:27:51.029Z,10.63
2023-01-12T02:31:05.725Z,9.18
2023-01-12T02:34:11.590Z,9.82
2023-01-12T02:37:14.420Z,10.05
2023-01-12T02:40:18.661Z,9.93
2023-01-12T02:43:27.745Z,8.27
2023-01-12T02:46:28.848Z,10.20
2023-01-12T02:49:08.239Z,8.80
2023-01-12T02:51:55.369Z,6.75
2023-01-12T02:54:29.002Z,7.63
2023-01-12T02:57:10.233Z,7.60
2023-01-12T02:59:46.243Z,6.85
2023-01-12T03:02:26.358Z,7.00
2023-01-12T03:04:56.340Z,8.05
2023-01-12T03:07:47.978Z,7.18
2023-01-12T03:10:42.946Z,6.10
2023-01-12T03:13:17.832Z,5.32
2023-01-12T03:15:53.509Z,5.35
2023-01-12T03:18:57.633Z,5.68
2023-01-12T03:21:36.282Z,5.28
2023-01-12T03:24:10.573Z,6.25
2023-01-12T03:26:55.578Z,5.82
2023-01-12T03:29:31.108Z,5.28
2023-01-12T03:32:00.856Z,5.07
2023-01-12T03:34:30.834Z,5.20
2023-01-12T03:37:17.819Z,5.07
2023-01-12T03:40:11.267Z,5.95
2023-01-12T03:42:54.352Z,5.63
2023-01-12T03:45:53.845Z,6.47
2023-01-12T03:48:29.303Z,6.57
2023-01-12T03:51:25.230Z,5.95
2023-01-12T03:54:00.628Z,5.45
2023-01-12T03:56:41.121Z,6.20
2023-01-12T03:59:10.876Z,6.15
2023-01-12T04:01:40.933Z,6.40
2023-01-12T04:04:10.322Z,6.68
2023-01-12T04:06:39.496Z,6.47
2023-01-12T04:09:08.956Z,6.10
2023-01-12T04:11:56.591Z,4.95
2023-01-12T04:14:25.843Z,4.23
2023-01-12T04:16:55.294Z,4.22
2023-01-12T04:19:24.651Z,5.13
2023-01-12T04:22:11.962Z,3.65
2023-01-12T04:24:41.172Z,4.03
2023-01-12T04:27:11.028Z,4.00
2023-01-12T04:29:40.316Z,4.65
2023-01-12T04:32:09.712Z,4.53
2023-01-12T04:34:40.551Z,3.90
2023-01-12T04:37:09.829Z,4.88
2023-01-12T04:39:38.986Z,5.85
2023-01-12T04:42:28.019Z,4.72
2023-01-12T04:44:57.208Z,5.68
2023-01-12T04:47:26.437Z,7.70
2023-01-12T04:49:55.705Z,10.00
2023-01-12T04:52:24.901Z,11.43
2023-01-12T04:54:56.689Z,9.35
2023-01-12T04:57:26.181Z,11.18
2023-01-12T04:59:56.628Z,13.02
2023-01-12T05:02:26.232Z,30.98
2023-01-12T05:04:55.386Z,10.55
2023-01-12T05:07:24.562Z,11.15
2023-01-12T05:10:12.078Z,12.23
2023-01-12T05:12:41.148Z,10.77
2023-01-12T05:15:10.871Z,12.43
2023-01-12T05:17:40.055Z,12.10
2023-01-12T05:20:10.413Z,13.52
2023-01-12T05:22:39.503Z,12.77
2023-01-12T05:25:09.914Z,11.95
2023-01-12T05:27:39.021Z,11.95
2023-01-12T05:30:09.629Z,12.48
2023-01-12T05:32:42.605Z,11.85
2023-01-12T05:35:12.141Z,10.95
2023-01-12T05:37:42.564Z,8.65
2023-01-12T05:40:13.437Z,9.70
2023-01-12T05:43:01.611Z,9.88
2023-01-12T05:45:31.328Z,9.93
2023-01-12T05:48:03.580Z,7.60
2023-01-12T05:50:33.370Z,8.75
2023-01-12T05:53:03.083Z,8.77
2023-01-12T05:55:32.806Z,8.52
2023-01-12T05:58:02.846Z,6.25
2023-01-12T06:00:33.132Z,6.57
2023-01-12T06:03:05.013Z,6.10
2023-01-12T06:05:34.776Z,6.65
2023-01-12T06:08:04.672Z,5.97
2023-01-12T06:10:35.961Z,8.43
2023-01-12T06:13:23.192Z,8.13
2023-01-12T06:15:52.427Z,8.13
2023-01-12T06:18:23.543Z,7.93
2023-01-12T06:20:52.758Z,9.48
2023-01-12T06:23:22.095Z,7.55
2023-01-12T06:26:10.348Z,7.05
2023-01-12T06:28:41.952Z,7.80
2023-01-12T06:31:14.849Z,8.23
2023-01-12T06:33:44.672Z,6.82
2023-01-12T06:36:13.983Z,5.93
2023-01-12T06:38:44.317Z,6.05
2023-01-12T06:41:33.050Z,7.80
2023-01-12T06:44:02.640Z,6.60
2023-01-12T06:46:32.212Z,6.75
2023-01-12T06:49:01.464Z,7.45
2023-01-12T06:51:30.757Z,8.52
2023-01-12T06:53:59.920Z,6.32
2023-01-12T06:56:29.209Z,6.40
2023-01-12T06:58:58.383Z,6.65
2023-01-12T07:01:28.400Z,5.88
2023-01-12T07:03:57.598Z,4.18
2023-01-12T07:06:26.798Z,4.53
2023-01-12T07:08:55.951Z,4.55
2023-01-12T07:11:25.469Z,4.35
2023-01-12T07:13:54.638Z,6.63
2023-01-12T07:16:24.002Z,5.25
2023-01-12T07:18:53.211Z,2.88
2023-01-12T07:21:25.667Z,3.10
2023-01-12T07:23:54.878Z,3.60
2023-01-12T07:26:24.035Z,2.08
2023-01-12T07:28:53.240Z,2.47
2023-01-12T07:31:22.576Z,2.13
2023-01-12T07:33:54.956Z,1.73
2023-01-12T07:36:26.859Z,1.77
2023-01-12T07:38:56.136Z,2.22
2023-01-12T07:41:43.914Z,2.35
2023-01-12T07:44:13.198Z,2.63
2023-01-12T07:46:42.438Z,2.95
2023-01-12T07:49:11.745Z,2.78
2023-01-12T07:51:41.037Z,2.80
2023-01-12T07:54:10.889Z,1.00
2023-01-12T07:56:40.046Z,2.13
2023-01-12T07:59:09.241Z,1.48
2023-01-12T08:01:41.268Z,1.95
2023-01-12T08:04:10.588Z,4.25
2023-01-12T08:06:39.827Z,1.50
2023-01-12T08:09:09.318Z,0.80
2023-01-12T08:11:42.510Z,1.20
2023-01-12T08:14:25.653Z,1.02
2023-01-12T08:16:57.589Z,2.60
2023-01-12T08:19:38.285Z,2.70
2023-01-12T08:22:17.702Z,1.15
2023-01-12T08:25:00.898Z,1.13
2023-01-12T08:27:35.146Z,1.45
2023-01-12T08:30:09.170Z,2.55
2023-01-12T08:32:38.993Z,2.60
2023-01-12T08:35:09.836Z,2.03
2023-01-12T08:37:39.187Z,2.00
2023-01-12T08:40:09.726Z,2.38
2023-01-12T08:42:38.899Z,2.67
2023-01-12T08:45:09.617Z,2.85
2023-01-12T08:47:44.199Z,7.20
2023-01-12T08:50:15.428Z,4.63
2023-01-12T08:52:44.566Z,4.45
2023-01-12T08:55:13.851Z,5.53
2023-01-12T08:57:43.121Z,4.75
2023-01-12T09:00:13.148Z,4.85
2023-01-12T09:02:43.222Z,5.65
2023-01-12T09:05:12.340Z,4.15
2023-01-12T09:07:42.895Z,4.40
2023-01-12T09:10:12.447Z,5.22
2023-01-12T09:12:41.597Z,6.00
2023-01-12T09:15:11.614Z,5.30
2023-01-12T09:17:40.917Z,4.95
2023-01-12T09:20:10.826Z,5.18
2023-01-12T09:22:39.864Z,4.28
2023-01-12T09:25:09.476Z,3.83
2023-01-12T09:27:39.246Z,4.05
2023-01-12T09:30:09.713Z,3.88
2023-01-12T09:32:38.973Z,4.85
2023-01-12T09:35:08.874Z,4.22
2023-01-12T09:37:38.907Z,3.58
2023-01-12T09:40:09.030Z,4.38
2023-01-12T09:42:57.315Z,4.97
2023-01-12T09:48:15.365Z,5.85
2023-01-12T09:51:03.033Z,6.82
2023-01-12T09:53:41.583Z,7.18
2023-01-12T09:56:17.287Z,5.90
2023-01-12T09:59:06.324Z,4.93
2023-01-12T10:01:38.350Z,4.45
2023-01-12T10:04:09.059Z,5.22
2023-01-12T10:06:38.473Z,4.93
2023-01-12T10:09:22.899Z,9.32
2023-01-12T10:12:43.074Z,5.90
2023-01-12T10:15:58.807Z,5.63
2023-01-12T10:18:47.663Z,7.47
2023-01-12T10:21:17.093Z,7.07
2023-01-12T10:23:47.085Z,4.88
2023-01-12T10:26:26.772Z,5.72
2023-01-12T10:28:59.298Z,5.20
2023-01-12T10:31:28.843Z,6.50
2023-01-12T10:34:13.320Z,5.38
2023-01-12T10:36:50.603Z,5.20
2023-01-12T10:39:35.201Z,5.85
2023-01-12T10:42:45.131Z,5.97
2023-01-12T10:45:24.490Z,5.55
2023-01-12T10:47:55.114Z,5.05
2023-01-12T10:50:30.231Z,5.53
2023-01-12T10:53:12.646Z,5.65
2023-01-12T10:55:44.424Z,6.53
2023-01-12T10:58:39.713Z,7.05
2023-01-12T11:01:09.541Z,6.72
2023-01-12T11:03:43.089Z,8.10
2023-01-12T11:06:33.954Z,8.02
2023-01-12T11:09:25.754Z,7.68
2023-01-12T11:12:35.663Z,8.38
2023-01-12T11:15:13.894Z,12.32
2023-01-12T11:18:39.836Z,10.50
2023-01-12T11:21:18.928Z,8.07
2023-01-12T11:24:18.358Z,8.30
2023-01-12T11:27:30.808Z,9.00
2023-01-12T11:30:04.965Z,9.55
2023-01-12T11:33:00.557Z,8.07
2023-01-12T11:35:45.968Z,10.55
2023-01-12T11:38:51.883Z,10.48
2023-01-12T11:42:14.145Z,10.30
2023-01-12T11:45:15.105Z,10.75
2023-01-12T11:48:23.510Z,10.90
2023-01-12T11:50:55.037Z,9.65
2023-01-12T11:53:26.919Z,9.65
2023-01-12T11:56:37.534Z,10.75
2023-01-12T11:59:23.500Z,10.85
2023-01-12T12:02:38.436Z,10.95
2023-01-12T12:05:31.597Z,10.88
2023-01-12T12:08:41.251Z,11.10
2023-01-12T12:12:00.791Z,10.98
2023-01-12T12:14:45.227Z,12.38
2023-01-12T12:17:29.352Z,11.25
2023-01-12T12:20:47.789Z,11.20
2023-01-12T12:23:41.450Z,14.23
2023-01-12T12:26:45.359Z,15.35
2023-01-12T12:29:23.727Z,15.35
2023-01-12T12:32:25.610Z,14.80
2023-01-12T12:35:26.940Z,15.55
2023-01-12T12:38:21.840Z,15.20
2023-01-12T12:41:30.235Z,15.30
2023-01-12T12:44:35.940Z,13.75
2023-01-12T12:47:29.612Z,15.50
2023-01-12T12:50:01.719Z,17.15
2023-01-12T12:52:36.588Z,15.77
2023-01-12T12:55:07.884Z,15.68
2023-01-12T12:58:22.398Z,14.60
2023-01-12T13:00:57.760Z,15.07
2023-01-12T13:03:42.444Z,16.08
2023-01-12T13:06:31.928Z,15.75
2023-01-12T13:09:11.750Z,16.52
2023-01-12T13:12:01.301Z,16.60
2023-01-12T13:14:39.137Z,16.75
2023-01-12T13:17:23.358Z,16.88
2023-01-12T13:20:24.220Z,17.05
2023-01-12T13:22:54.457Z,17.40
2023-01-12T13:25:24.867Z,17.60
2023-01-12T13:28:00.915Z,17.88
2023-01-12T13:30:33.000Z,16.65
2023-01-12T13:33:17.388Z,14.63
2023-01-12T13:35:47.379Z,16.08
2023-01-12T13:38:52.884Z,15.52
2023-01-12T13:41:50.069Z,15.15
2023-01-12T13:44:35.657Z,15.68
2023-01-12T13:47:17.759Z,16.25
2023-01-12T13:49:53.413Z,16.52
2023-01-12T13:52:30.772Z,16.67
2023-01-12T13:55:00.789Z,17.30
2023-01-12T13:57:32.665Z,16.17
2023-01-12T14:00:10.081Z,16.35
2023-01-12T14:02:41.543Z,18.08
2023-01-12T14:05:27.042Z,16.88
2023-01-12T14:08:36.817Z,15.38
2023-01-12T14:11:27.121Z,16.20
2023-01-12T14:14:48.410Z,15.60
2023-01-12T14:17:48.903Z,16.30
2023-01-12T14:20:23.578Z,15.20
2023-01-12T14:23:15.214Z,15.40
2023-01-12T14:25:45.813Z,15.10
2023-01-12T14:28:24.016Z,14.50
2023-01-12T14:30:57.993Z,13.07
2023-01-12T14:33:35.569Z,15.52
2023-01-12T14:36:13.627Z,14.48
2023-01-12T14:38:45.529Z,13.63
2023-01-12T14:41:42.305Z,14.43
2023-01-12T14:44:46.210Z,13.45
2023-01-12T14:47:33.220Z,14.68
2023-01-12T14:50:17.122Z,14.10
2023-01-12T14:52:49.387Z,13.95
2023-01-12T14:55:27.944Z,12.10
2023-01-12T15:00:43.966Z,13.20
2023-01-12T15:03:31.911Z,13.48
2023-01-12T15:06:06.067Z,13.40
2023-01-12T15:08:37.445Z,11.85
2023-01-12T15:11:11.743Z,12.68
2023-01-12T15:13:40.960Z,12.32
2023-01-12T15:16:31.398Z,13.70
2023-01-12T15:19:19.211Z,11.18
2023-01-12T15:22:06.446Z,13.45
2023-01-12T15:24:54.994Z,12.70
2023-01-12T15:27:26.610Z,12.20
2023-01-12T15:29:56.584Z,12.38
2023-01-12T15:32:47.683Z,13.45
2023-01-12T15:35:24.981Z,11.55
2023-01-12T15:37:57.899Z,12.65
2023-01-12T15:40:29.388Z,13.68
2023-01-12T15:43:00.774Z,12.88
2023-01-12T15:45:40.893Z,14.05
2023-01-12T15:48:10.975Z,14.48
2023-01-12T15:50:43.549Z,13.50
2023-01-12T15:53:22.981Z,13.15
2023-01-12T15:55:52.194Z,12.60
2023-01-12T15:58:21.395Z,14.63
2023-01-12T16:00:50.803Z,14.57
2023-01-12T16:03:54.460Z,14.98
2023-01-12T16:06:09.584Z,13.82
2023-01-12T16:08:39.471Z,14.68
2023-01-12T16:11:18.795Z,14.77
2023-01-12T16:13:50.270Z,14.82
2023-01-12T16:16:22.149Z,14.93
2023-01-12T16:18:51.335Z,14.23
2023-01-12T16:21:24.331Z,13.77
2023-01-12T16:23:54.502Z,14.95
2023-01-12T16:26:23.583Z,15.25
2023-01-12T16:28:52.778Z,16.80
2023-01-12T16:31:22.539Z,16.63
2023-01-12T16:33:51.658Z,17.10
2023-01-12T16:36:20.865Z,15.98
2023-01-12T16:38:52.369Z,16.52
2023-01-12T16:41:23.313Z,17.20
2023-01-12T16:43:52.561Z,16.92
2023-01-12T16:46:21.976Z,16.55
2023-01-12T16:48:52.802Z,14.02
2023-01-12T16:51:22.069Z,12.68
2023-01-12T16:53:52.442Z,14.15
2023-01-12T16:56:21.821Z,14.88
2023-01-12T16:58:51.051Z,15.48
2023-01-12T17:01:25.689Z,15.15
2023-01-12T17:03:58.754Z,14.80
2023-01-12T17:06:30.817Z,13.95
2023-01-12T17:09:03.539Z,16.20
2023-01-12T17:11:33.824Z,15.02
2023-01-12T17:14:23.797Z,14.75
2023-01-12T17:16:57.384Z,15.90
2023-01-12T17:19:29.014Z,17.02
2023-01-12T17:21:59.295Z,16.10
2023-01-12T17:24:29.222Z,14.82
2023-01-12T17:26:59.075Z,16.33
2023-01-12T17:29:29.704Z,16.83
2023-01-12T17:32:06.721Z,16.52
2023-01-12T17:34:40.752Z,16.25
2023-01-12T17:37:10.648Z,16.52
2023-01-12T17:39:43.484Z,16.73
2023-01-12T17:42:33.448Z,16.73
2023-01-12T17:45:03.475Z,17.75
2023-01-12T17:47:32.884Z,18.25
2023-01-12T17:50:02.098Z,16.77
2023-01-12T17:52:31.415Z,16.42
2023-01-12T17:55:00.532Z,17.65
2023-01-12T17:57:30.798Z,17.55
2023-01-12T17:59:59.969Z,17.73
2023-01-12T18:02:29.766Z,17.90
2023-01-12T18:04:58.880Z,17.88
2023-01-12T18:07:28.009Z,17.88
2023-01-12T18:09:57.165Z,17.88
2023-01-12T18:12:27.081Z,18.27
2023-01-12T18:14:56.765Z,18.52
2023-01-12T18:17:25.930Z,18.98
2023-01-12T18:19:55.038Z,17.25
2023-01-12T18:22:24.190Z,17.83
2023-01-12T18:24:53.506Z,16.55
2023-01-12T18:27:22.932Z,18.15
2023-01-12T18:29:52.017Z,16.52
2023-01-12T18:32:21.276Z,18.80
2023-01-12T18:34:50.422Z,17.08
2023-01-12T18:37:19.590Z,18.75
2023-01-12T18:39:50.641Z,19.08
2023-01-12T18:42:38.111Z,18.88
2023-01-12T18:45:07.840Z,19.38
2023-01-12T18:47:55.358Z,17.83
2023-01-12T18:50:42.885Z,18.45
2023-01-12T18:53:26.429Z,17.67
2023-01-12T18:56:02.688Z,16.65
2023-01-12T18:58:35.590Z,16.13
2023-01-12T19:01:15.541Z,17.90
2023-01-12T19:03:44.843Z,17.83
2023-01-12T19:06:22.283Z,17.95
2023-01-12T19:09:11.664Z,18.55
2023-01-12T19:11:42.395Z,18.38
2023-01-12T19:14:30.191Z,18.13
2023-01-12T19:17:17.450Z,19.27
2023-01-12T19:19:46.577Z,21.65
2023-01-12T19:22:33.931Z,19.83
2023-01-12T19:25:21.460Z,18.85
2023-01-12T19:28:08.770Z,20.98
2023-01-12T19:30:39.154Z,20.52
2023-01-12T19:33:17.383Z,19.20
2023-01-12T19:35:48.598Z,19.63
2023-01-12T19:38:17.769Z,20.92
2023-01-12T19:40:52.569Z,22.08
2023-01-12T19:43:27.286Z,23.33
2023-01-12T19:45:59.511Z,22.95
2023-01-12T19:48:28.896Z,23.38
2023-01-12T19:51:04.773Z,22.88
2023-01-12T19:53:34.253Z,22.55
2023-01-12T19:56:03.546Z,21.75
2023-01-12T19:58:32.676Z,20.65
2023-01-12T20:01:01.919Z,21.95
2023-01-12T20:03:31.891Z,21.27
2023-01-12T20:06:07.107Z,21.33
2023-01-12T20:08:36.319Z,22.55
2023-01-12T20:11:05.883Z,22.83
2023-01-12T20:13:36.427Z,25.30
2023-01-12T20:16:11.402Z,27.13
2023-01-12T20:18:44.316Z,29.00
2023-01-12T20:21:14.344Z,28.65
2023-01-12T20:23:43.551Z,29.27
2023-01-12T20:26:14.118Z,31.02
2023-01-12T20:28:43.452Z,30.63
2023-01-12T20:31:17.094Z,32.00
2023-01-12T20:33:46.294Z,31.67
2023-01-12T20:36:19.007Z,32.65
2023-01-12T20:38:48.544Z,32.47
2023-01-12T20:41:17.793Z,32.83
2023-01-12T20:43:47.463Z,33.67
2023-01-12T20:46:17.043Z,32.88
2023-01-12T20:48:46.898Z,32.58
2023-01-12T20:51:18.439Z,34.00
2023-01-12T20:53:47.604Z,32.63
2023-01-12T20:56:16.806Z,32.72
2023-01-12T20:58:46.095Z,32.22
2023-01-12T21:01:17.566Z,32.72
2023-01-12T21:03:47.045Z,34.63
2023-01-12T21:06:19.096Z,33.33
2023-01-12T21:08:49.444Z,33.40
2023-01-12T21:11:21.571Z,32.22
2023-01-12T21:13:50.939Z,32.97
2023-01-12T21:16:21.932Z,31.25
2023-01-12T21:18:52.595Z,31.35
2023-01-12T21:21:21.800Z,31.10
2023-01-12T21:23:51.196Z,30.15
2023-01-12T21:26:20.479Z,30.23
2023-01-12T21:28:49.655Z,31.35
2023-01-12T21:31:19.179Z,28.40
2023-01-12T21:33:48.442Z,29.50
2023-01-12T21:36:19.618Z,30.70
2023-01-12T21:38:53.644Z,30.70
2023-01-12T21:41:23.527Z,33.13
2023-01-12T21:43:54.713Z,31.73
2023-01-12T21:46:23.943Z,31.63
2023-01-12T21:48:53.156Z,29.85
2023-01-12T21:51:22.372Z,28.08
2023-01-12T21:53:51.524Z,27.98
2023-01-12T21:56:20.694Z,27.70
2023-01-12T21:58:50.003Z,26.35
2023-01-12T22:01:19.432Z,28.45
2023-01-12T22:03:49.830Z,30.13
2023-01-12T22:06:18.934Z,29.50
2023-01-12T22:08:48.076Z,29.55
2023-01-12T22:11:19.359Z,29.70
2023-01-12T22:13:48.621Z,28.23
2023-01-12T22:16:18.322Z,28.58
2023-01-12T22:18:50.629Z,26.50
2023-01-12T22:21:22.844Z,27.75
2023-01-12T22:23:52.014Z,25.88
2023-01-12T22:26:21.399Z,27.38
2023-01-12T22:28:51.173Z,27.52
2023-01-12T22:31:25.092Z,28.63
2023-01-12T22:34:05.367Z,27.27
2023-01-12T22:36:43.859Z,26.13
2023-01-12T22:39:16.275Z,26.45
2023-01-12T22:41:45.384Z,26.23
2023-01-12T22:44:14.608Z,27.10
2023-01-12T22:46:43.770Z,27.08
2023-01-12T22:49:13.315Z,27.02
2023-01-12T22:51:42.484Z,27.02
2023-01-12T22:54:11.606Z,26.85
2023-01-12T22:56:40.727Z,26.95
2023-01-12T22:59:10.996Z,26.40
2023-01-12T23:01:41.869Z,27.75
2023-01-12T23:04:14.325Z,26.45
2023-01-12T23:06:44.427Z,27.38
2023-01-12T23:09:14.115Z,28.35
2023-01-12T23:11:44.006Z,28.15
2023-01-12T23:14:13.686Z,27.27
2023-01-12T23:16:43.430Z,25.67
2023-01-12T23:19:13.761Z,25.95
2023-01-12T23:21:45.095Z,26.52
2023-01-12T23:24:14.791Z,26.63
2023-01-12T23:26:44.547Z,27.27
2023-01-12T23:29:14.256Z,25.92
2023-01-12T23:31:44.083Z,109.80
2023-01-12T23:34:14.603Z,29.27
2023-01-12T23:36:44.433Z,24.35
2023-01-12T23:39:14.478Z,24.17
2023-01-12T23:41:45.822Z,22.67
2023-01-12T23:44:15.704Z,23.05
2023-01-12T23:46:45.436Z,24.02
2023-01-12T23:49:15.150Z,23.17
2023-01-12T23:51:45.034Z,22.58
2023-01-12T23:54:19.628Z,24.63
2023-01-12T23:56:56.676Z,25.25
2023-01-12T23:59:26.439Z,26.35
